Elk City-Golden, Idaho
Current Conditions -  °F | °C
As of 6:15 AM on Saturday 25 Oct 2014 (Local Time) from KGIC Reporting Station
Overcast Overcast  
Wind Chill: 40°   Ceiling: 100
Heat Index: 40°   Visibility: 1mi
Dew Point: 38°   Wind: 0mph
Humidity: 95%   Direction: NA
Pressure: 29.83"   Gusts: NA
Location:  45.82°N, 115.43°W
Report Text: KGIC 251315Z AUTO 00000KT 1SM OVC001 04/04 A2983 RMK AO1 T00430035
Loading
Personal Weather Stations






























Interactive Weather Map
Tropical Storm Tracking
New forecast layout! Learn more

10-Day Weather Forecast

Advertisements
Track Severe Weather on mobile